createdAt,value
2019-02-02T00:01:03.371Z,26.23
2019-02-02T00:03:36.334Z,27.33
2019-02-02T00:06:08.595Z,25.90
2019-02-02T00:08:41.734Z,26.10
2019-02-02T00:11:13.933Z,25.90
2019-02-02T00:13:45.808Z,26.17
2019-02-02T00:16:18.194Z,26.60
2019-02-02T00:18:50.195Z,25.33
2019-02-02T00:21:22.429Z,26.27
2019-02-02T00:23:55.418Z,26.67
2019-02-02T00:26:29.819Z,26.30
2019-02-02T00:29:02.044Z,26.80
2019-02-02T00:31:36.839Z,27.13
2019-02-02T00:34:09.153Z,25.33
2019-02-02T00:36:41.207Z,26.00
2019-02-02T00:39:13.262Z,25.87
2019-02-02T00:41:45.538Z,25.27
2019-02-02T00:44:17.731Z,24.33
2019-02-02T00:46:49.710Z,24.60
2019-02-02T00:49:23.069Z,24.27
2019-02-02T00:51:57.672Z,25.37
2019-02-02T00:54:29.772Z,25.10
2019-02-02T00:57:01.747Z,26.13
2019-02-02T00:59:34.842Z,25.03
2019-02-02T01:02:07.027Z,25.60
2019-02-02T01:04:39.064Z,25.43
2019-02-02T01:07:11.526Z,25.07
2019-02-02T01:09:43.931Z,24.50
2019-02-02T01:12:17.230Z,24.87
2019-02-02T01:14:51.199Z,25.70
2019-02-02T01:17:24.487Z,24.97
2019-02-02T01:19:56.502Z,24.37
2019-02-02T01:22:29.600Z,24.57
2019-02-02T01:25:03.843Z,24.00
2019-02-02T01:27:35.880Z,22.33
2019-02-02T01:30:11.254Z,24.83
2019-02-02T01:32:44.394Z,24.37
2019-02-02T01:35:17.935Z,23.37
2019-02-02T01:37:49.959Z,23.80
2019-02-02T01:40:23.419Z,24.50
2019-02-02T01:42:56.589Z,24.87
2019-02-02T01:45:29.144Z,23.67
2019-02-02T01:48:01.636Z,24.53
2019-02-02T01:50:34.993Z,24.97
2019-02-02T01:53:08.280Z,23.27
2019-02-02T01:55:41.228Z,23.40
2019-02-02T01:58:16.952Z,22.43
2019-02-02T02:00:48.244Z,22.60
2019-02-02T02:03:21.673Z,24.00
2019-02-02T02:05:53.588Z,23.40
2019-02-02T02:08:25.516Z,22.70
2019-02-02T02:10:58.297Z,21.60
2019-02-02T02:13:30.331Z,22.13
2019-02-02T02:16:03.570Z,22.73
2019-02-02T02:18:35.580Z,23.47
2019-02-02T02:21:07.749Z,22.13
2019-02-02T02:23:42.486Z,21.63
2019-02-02T02:26:14.740Z,21.53
2019-02-02T02:28:48.848Z,21.83
2019-02-02T02:31:20.738Z,21.67
2019-02-02T02:33:52.860Z,21.77
2019-02-02T02:36:24.859Z,22.80
2019-02-02T02:38:56.976Z,23.03
2019-02-02T02:41:29.092Z,23.97
2019-02-02T02:44:01.318Z,23.10
2019-02-02T02:46:33.503Z,22.77
2019-02-02T02:49:05.603Z,23.10
2019-02-02T02:51:37.882Z,22.93
2019-02-02T02:54:11.227Z,22.67
2019-02-02T02:56:44.546Z,22.90
2019-02-02T02:59:16.800Z,21.03
2019-02-02T03:01:49.710Z,24.03
2019-02-02T03:04:22.004Z,22.50
2019-02-02T03:06:54.303Z,24.67
2019-02-02T03:09:27.651Z,24.83
2019-02-02T03:12:01.201Z,23.67
2019-02-02T03:14:33.567Z,25.10
2019-02-02T03:17:05.757Z,25.27
2019-02-02T03:19:37.748Z,25.63
2019-02-02T03:22:11.063Z,26.37
2019-02-02T03:24:43.353Z,26.47
2019-02-02T03:27:15.309Z,25.97
2019-02-02T03:29:47.468Z,25.93
2019-02-02T03:32:19.526Z,26.17
2019-02-02T03:34:51.715Z,26.40
2019-02-02T03:37:23.996Z,27.43
2019-02-02T03:39:56.340Z,25.50
2019-02-02T03:42:28.725Z,27.40
2019-02-02T03:45:01.995Z,27.20
2019-02-02T03:47:35.562Z,27.77
2019-02-02T03:50:08.306Z,25.90
2019-02-02T03:52:40.663Z,25.47
2019-02-02T03:55:13.778Z,27.67
2019-02-02T03:57:45.997Z,26.23
2019-02-02T04:00:20.654Z,25.87
2019-02-02T04:02:52.803Z,26.87
2019-02-02T04:05:26.862Z,24.40
2019-02-02T04:08:00.424Z,26.20
2019-02-02T04:10:32.529Z,26.03
2019-02-02T04:13:04.640Z,23.90
2019-02-02T04:15:36.622Z,26.43
2019-02-02T04:18:12.672Z,24.90
2019-02-02T04:20:44.823Z,26.17
2019-02-02T04:23:16.795Z,25.17
2019-02-02T04:25:48.991Z,26.17
2019-02-02T04:28:21.085Z,24.83
2019-02-02T04:30:53.479Z,24.20
2019-02-02T04:33:25.571Z,24.10
2019-02-02T04:35:57.896Z,25.37
2019-02-02T04:38:31.229Z,24.63
2019-02-02T04:41:02.849Z,25.37
2019-02-02T04:43:35.826Z,25.27
2019-02-02T04:46:07.956Z,26.27
2019-02-02T04:48:39.831Z,24.43
2019-02-02T04:51:11.921Z,24.73
2019-02-02T04:53:44.251Z,24.47
2019-02-02T04:56:17.544Z,25.43
2019-02-02T04:58:50.689Z,25.40
2019-02-02T05:01:22.916Z,24.87
2019-02-02T05:03:56.283Z,24.67
2019-02-02T05:06:28.506Z,25.57
2019-02-02T05:09:00.694Z,24.83
2019-02-02T05:11:33.074Z,24.17
2019-02-02T05:14:05.159Z,25.33
2019-02-02T05:16:38.374Z,26.83
2019-02-02T05:19:10.396Z,25.47
2019-02-02T05:21:43.016Z,25.63
2019-02-02T05:24:15.211Z,25.30
2019-02-02T05:26:47.415Z,25.37
2019-02-02T05:29:21.831Z,24.37
2019-02-02T05:31:53.889Z,24.27
2019-02-02T05:34:26.181Z,24.70
2019-02-02T05:36:58.750Z,25.73
2019-02-02T05:39:30.679Z,24.57
2019-02-02T05:42:02.663Z,25.80
2019-02-02T05:44:35.723Z,25.73
2019-02-02T05:47:09.988Z,24.70
2019-02-02T05:49:42.019Z,24.43
2019-02-02T05:52:14.242Z,25.87
2019-02-02T05:54:46.420Z,26.13
2019-02-02T05:57:18.635Z,24.97
2019-02-02T05:59:53.060Z,24.67
2019-02-02T06:02:25.311Z,25.87
2019-02-02T06:04:57.724Z,25.20
2019-02-02T06:07:29.648Z,25.20
2019-02-02T06:10:03.370Z,24.90
2019-02-02T06:12:36.356Z,27.13
2019-02-02T06:15:09.149Z,27.10
2019-02-02T06:17:41.172Z,26.23
2019-02-02T06:20:14.252Z,25.30
2019-02-02T06:22:46.540Z,26.90
2019-02-02T06:25:19.055Z,27.90
2019-02-02T06:27:51.043Z,26.83
2019-02-02T06:30:25.219Z,26.70
2019-02-02T06:32:57.727Z,27.97
2019-02-02T06:35:29.835Z,26.60
2019-02-02T06:38:04.258Z,26.90
2019-02-02T06:40:37.975Z,27.60
2019-02-02T06:43:10.475Z,26.43
2019-02-02T06:45:43.885Z,27.87
2019-02-02T06:48:16.318Z,27.13
2019-02-02T06:50:48.747Z,26.97
2019-02-02T06:53:23.617Z,27.40
2019-02-02T06:55:56.638Z,27.87
2019-02-02T06:58:29.363Z,27.00
2019-02-02T07:01:02.743Z,28.40
2019-02-02T07:03:34.831Z,28.53
2019-02-02T07:06:09.902Z,27.57
2019-02-02T07:08:42.072Z,26.83
2019-02-02T07:11:14.288Z,25.83
2019-02-02T07:13:47.340Z,27.00
2019-02-02T07:16:19.929Z,27.23
2019-02-02T07:18:54.212Z,28.10
2019-02-02T07:21:28.537Z,26.87
2019-02-02T07:24:00.529Z,27.07
2019-02-02T07:26:32.657Z,27.03
2019-02-02T07:29:06.613Z,27.43
2019-02-02T07:31:38.571Z,27.77
2019-02-02T07:34:10.640Z,26.37
2019-02-02T07:36:43.739Z,27.13
2019-02-02T07:39:15.894Z,26.60
2019-02-02T07:41:47.807Z,26.63
2019-02-02T07:44:20.707Z,26.87
2019-02-02T07:46:52.766Z,26.57
2019-02-02T07:49:24.964Z,27.17
2019-02-02T07:51:58.002Z,26.63
2019-02-02T07:54:32.977Z,26.20
2019-02-02T07:57:04.108Z,25.67
2019-02-02T07:59:36.367Z,26.47
2019-02-02T08:02:08.361Z,25.27
2019-02-02T08:04:40.436Z,26.47
2019-02-02T08:07:12.433Z,24.73
2019-02-02T08:09:44.424Z,25.23
2019-02-02T08:12:19.443Z,25.37
2019-02-02T08:14:51.609Z,25.57
2019-02-02T08:17:24.719Z,24.03
2019-02-02T08:19:56.938Z,24.13
2019-02-02T08:22:29.061Z,23.10
2019-02-02T08:25:02.554Z,23.57
2019-02-02T08:27:36.558Z,24.37
2019-02-02T08:30:12.766Z,25.73
2019-02-02T08:32:46.059Z,26.20
2019-02-02T08:35:19.600Z,25.77
2019-02-02T08:37:51.783Z,26.03
2019-02-02T08:40:24.919Z,25.57
2019-02-02T08:42:56.970Z,26.83
2019-02-02T08:45:28.970Z,26.70
2019-02-02T08:48:02.390Z,25.50
2019-02-02T08:50:39.065Z,25.67
2019-02-02T08:53:12.484Z,25.53
2019-02-02T08:55:45.900Z,25.93
2019-02-02T08:58:18.047Z,24.00
2019-02-02T09:00:50.176Z,24.47
2019-02-02T09:03:23.509Z,23.67
2019-02-02T09:05:55.936Z,23.73
2019-02-02T09:08:29.196Z,23.97
2019-02-02T09:11:03.030Z,24.40
2019-02-02T09:13:36.901Z,23.47
2019-02-02T09:16:10.731Z,22.67
2019-02-02T09:18:42.907Z,24.73
2019-02-02T09:21:15.059Z,22.67
2019-02-02T09:23:47.032Z,24.43
2019-02-02T09:26:19.960Z,22.40
2019-02-02T09:28:54.135Z,24.07
2019-02-02T09:31:26.061Z,22.13
2019-02-02T09:33:58.195Z,22.90
2019-02-02T09:36:32.761Z,23.13
2019-02-02T09:39:06.402Z,24.07
2019-02-02T09:41:40.730Z,22.77
2019-02-02T09:44:12.540Z,22.63
2019-02-02T09:46:45.959Z,23.20
2019-02-02T09:49:18.192Z,23.60
2019-02-02T09:51:50.174Z,23.63
2019-02-02T09:54:26.499Z,22.47
2019-02-02T09:56:58.412Z,22.93
2019-02-02T09:59:33.014Z,23.33
2019-02-02T10:02:05.636Z,23.53
2019-02-02T10:04:37.947Z,23.30
2019-02-02T10:07:11.200Z,22.70
2019-02-02T10:09:44.437Z,22.40
2019-02-02T10:12:16.595Z,23.17
2019-02-02T10:14:50.010Z,23.80
2019-02-02T10:17:22.161Z,23.53
2019-02-02T10:19:54.303Z,22.87
2019-02-02T10:22:26.435Z,23.53
2019-02-02T10:24:59.560Z,24.30
2019-02-02T10:27:31.780Z,23.43
2019-02-02T10:30:03.838Z,23.13
2019-02-02T10:32:37.105Z,22.13
2019-02-02T10:35:09.119Z,24.13
2019-02-02T10:37:41.958Z,24.20
2019-02-02T10:40:14.304Z,22.83
2019-02-02T10:42:46.791Z,22.20
2019-02-02T10:45:18.838Z,24.37
2019-02-02T10:47:52.223Z,23.50
2019-02-02T10:50:25.529Z,23.27
2019-02-02T10:52:57.805Z,23.23
2019-02-02T10:55:29.993Z,22.77
2019-02-02T10:58:24.974Z,23.50
2019-02-02T11:01:01.326Z,23.03
2019-02-02T11:03:36.762Z,23.17
2019-02-02T11:06:08.762Z,22.77
2019-02-02T11:08:46.927Z,23.70
2019-02-02T11:11:29.966Z,23.00
2019-02-02T11:14:06.301Z,22.27
2019-02-02T11:16:38.281Z,24.27
2019-02-02T11:19:21.783Z,22.13
2019-02-02T11:21:56.203Z,23.97
2019-02-02T11:24:31.644Z,23.77
2019-02-02T11:27:04.752Z,23.20
2019-02-02T11:29:36.907Z,23.67
2019-02-02T11:32:09.835Z,22.80
2019-02-02T11:34:46.090Z,22.60
2019-02-02T11:37:22.324Z,22.53
2019-02-02T11:39:57.806Z,23.17
2019-02-02T11:45:27.912Z,20.80
2019-02-02T11:48:01.490Z,22.93
2019-02-02T11:50:34.479Z,22.37
2019-02-02T11:53:06.523Z,23.93
2019-02-02T11:55:40.745Z,22.90
2019-02-02T11:58:14.298Z,21.53
2019-02-02T12:00:46.574Z,22.40
2019-02-02T12:03:26.414Z,22.93
2019-02-02T12:05:58.615Z,23.67
2019-02-02T12:08:55.773Z,23.47
2019-02-02T12:11:35.516Z,24.03
2019-02-02T12:17:19.426Z,21.87
2019-02-02T12:19:51.360Z,21.57
2019-02-02T12:22:23.240Z,23.47
2019-02-02T12:24:55.402Z,22.87
2019-02-02T12:27:27.460Z,23.17
2019-02-02T12:30:00.528Z,23.37
2019-02-02T12:32:32.493Z,23.53
2019-02-02T12:35:05.139Z,22.83
2019-02-02T12:37:37.275Z,21.97
2019-02-02T12:40:11.601Z,23.47
2019-02-02T12:42:43.435Z,22.93
2019-02-02T12:45:18.288Z,23.03
2019-02-02T12:47:51.514Z,23.90
2019-02-02T12:50:24.587Z,23.17
2019-02-02T12:52:57.528Z,24.10
2019-02-02T12:55:29.471Z,25.10
2019-02-02T12:58:02.579Z,23.40
2019-02-02T13:00:36.968Z,24.30
2019-02-02T13:03:09.559Z,23.13
2019-02-02T13:05:41.498Z,23.47
2019-02-02T13:08:13.779Z,22.40
2019-02-02T13:10:48.479Z,22.50
2019-02-02T13:13:21.464Z,22.50
2019-02-02T13:15:53.463Z,23.57
2019-02-02T13:18:26.759Z,23.97
2019-02-02T13:21:00.729Z,21.53
2019-02-02T13:23:32.709Z,22.87
2019-02-02T13:26:05.898Z,21.93
2019-02-02T13:28:41.122Z,22.70
2019-02-02T13:31:13.135Z,22.73
2019-02-02T13:33:46.269Z,22.77
2019-02-02T13:36:19.368Z,20.77
2019-02-02T13:38:51.487Z,20.83
2019-02-02T13:41:24.858Z,21.20
2019-02-02T13:43:57.919Z,20.43
2019-02-02T13:46:29.955Z,19.93
2019-02-02T13:49:04.522Z,20.27
2019-02-02T13:51:37.535Z,20.60
2019-02-02T13:54:14.991Z,18.77
2019-02-02T13:56:49.812Z,19.37
2019-02-02T13:59:21.558Z,18.67
2019-02-02T14:01:54.632Z,20.13
2019-02-02T14:04:28.148Z,19.93
2019-02-02T14:07:00.149Z,18.63
2019-02-02T14:09:33.165Z,19.83
2019-02-02T14:12:05.358Z,19.53
2019-02-02T14:14:37.597Z,18.60
2019-02-02T14:21:26.434Z,18.60
2019-02-02T14:23:58.748Z,19.60
2019-02-02T14:26:30.962Z,19.60
2019-02-02T14:29:03.023Z,19.73
2019-02-02T14:31:35.010Z,19.67
2019-02-02T14:34:07.117Z,19.07
2019-02-02T14:43:10.586Z,18.37
2019-02-02T14:45:46.883Z,17.57
2019-02-02T14:48:28.287Z,18.60
2019-02-02T14:51:04.314Z,17.80
2019-02-02T14:56:32.378Z,18.37
2019-02-02T14:59:13.484Z,18.10
2019-02-02T15:01:45.323Z,18.63
2019-02-02T15:04:17.281Z,17.13
2019-02-02T15:06:49.163Z,18.80
2019-02-02T15:09:21.048Z,17.70
2019-02-02T15:11:53.010Z,17.73
2019-02-02T15:14:24.786Z,17.80
2019-02-02T15:16:56.674Z,19.03
2019-02-02T15:19:28.587Z,18.53
2019-02-02T15:22:00.454Z,18.80
2019-02-02T15:24:32.396Z,20.07
2019-02-02T15:27:04.283Z,18.00
2019-02-02T15:29:36.131Z,19.47
2019-02-02T15:32:08.012Z,18.57
2019-02-02T15:34:39.934Z,19.43
2019-02-02T15:37:11.863Z,19.50
2019-02-02T15:39:43.770Z,19.23
2019-02-02T15:42:15.671Z,20.50
2019-02-02T15:44:47.531Z,19.00
2019-02-02T15:47:19.359Z,19.90
2019-02-02T15:49:51.202Z,20.97
2019-02-02T15:52:23.109Z,19.80
2019-02-02T15:54:55.021Z,20.40
2019-02-02T15:57:28.223Z,20.20
2019-02-02T16:00:00.085Z,21.00
2019-02-02T16:02:31.987Z,19.57
2019-02-02T16:05:04.563Z,20.97
2019-02-02T16:07:36.512Z,21.37
2019-02-02T16:10:10.791Z,21.30
2019-02-02T16:12:42.600Z,20.50
2019-02-02T16:15:14.872Z,20.83
2019-02-02T16:17:46.831Z,20.40
2019-02-02T16:20:21.035Z,21.10
2019-02-02T16:22:52.836Z,21.23
2019-02-02T16:25:24.761Z,20.70
2019-02-02T16:27:56.556Z,19.97
2019-02-02T16:30:29.842Z,20.90
2019-02-02T16:33:01.703Z,21.07
2019-02-02T16:35:34.796Z,22.20
2019-02-02T16:38:07.159Z,21.43
2019-02-02T16:40:38.966Z,21.67
2019-02-02T16:43:10.962Z,21.60
2019-02-02T16:45:43.762Z,22.73
2019-02-02T16:48:15.633Z,22.20
2019-02-02T16:50:47.424Z,21.97
2019-02-02T16:53:21.767Z,21.93
2019-02-02T16:55:52.826Z,20.67
2019-02-02T16:58:25.986Z,22.40
2019-02-02T17:00:57.804Z,21.87
2019-02-02T17:03:29.623Z,23.03
2019-02-02T17:06:01.021Z,22.97
2019-02-02T17:08:33.842Z,24.40
2019-02-02T17:11:06.817Z,23.70
2019-02-02T17:13:38.697Z,24.00
2019-02-02T17:16:10.527Z,23.33
2019-02-02T17:18:42.333Z,22.93
2019-02-02T17:21:14.184Z,22.87
2019-02-02T17:23:46.109Z,22.33
2019-02-02T17:26:17.922Z,23.33
2019-02-02T17:28:50.959Z,24.13
2019-02-02T17:31:24.386Z,23.03
2019-02-02T17:33:57.590Z,24.43
2019-02-02T17:36:29.572Z,24.03
2019-02-02T17:39:04.865Z,24.57
2019-02-02T17:41:36.818Z,24.90
2019-02-02T17:44:09.815Z,22.50
2019-02-02T17:46:47.137Z,22.87
2019-02-02T17:49:20.537Z,25.33
2019-02-02T17:51:53.355Z,24.87
2019-02-02T17:54:27.807Z,25.07
2019-02-02T17:57:02.174Z,26.13
2019-02-02T17:59:34.019Z,25.73
2019-02-02T18:02:06.107Z,28.00
2019-02-02T18:04:43.072Z,25.73
2019-02-02T18:07:14.059Z,26.10
2019-02-02T18:09:47.123Z,28.73
2019-02-02T18:12:20.106Z,29.30
2019-02-02T18:14:53.581Z,29.27
2019-02-02T18:17:29.221Z,29.50
2019-02-02T18:20:01.215Z,28.73
2019-02-02T18:22:34.116Z,28.67
2019-02-02T18:25:08.302Z,28.63
2019-02-02T18:27:42.814Z,30.93
2019-02-02T18:30:18.417Z,31.53
2019-02-02T18:32:50.267Z,31.13
2019-02-02T18:35:22.398Z,29.70
2019-02-02T18:37:54.270Z,31.37
2019-02-02T18:40:27.157Z,29.57
2019-02-02T18:42:59.020Z,30.50
2019-02-02T18:45:31.899Z,29.67
2019-02-02T18:48:03.937Z,30.90
2019-02-02T18:50:35.785Z,30.47
2019-02-02T18:53:07.607Z,28.97
2019-02-02T18:55:52.099Z,28.47
2019-02-02T18:58:24.075Z,29.27
2019-02-02T19:00:55.989Z,29.37
2019-02-02T19:03:27.898Z,28.50
2019-02-02T19:05:59.794Z,28.23
2019-02-02T19:08:31.654Z,28.27
2019-02-02T19:11:03.836Z,27.47
2019-02-02T19:13:35.938Z,27.73
2019-02-02T19:16:07.944Z,26.30
2019-02-02T19:18:39.868Z,28.67
2019-02-02T19:21:11.743Z,27.53
2019-02-02T19:23:43.618Z,28.30
2019-02-02T19:26:15.563Z,30.50
2019-02-02T19:28:48.472Z,29.97
2019-02-02T19:31:20.403Z,30.13
2019-02-02T19:33:52.275Z,28.60
2019-02-02T19:36:24.169Z,30.13
2019-02-02T19:38:56.110Z,29.67
2019-02-02T19:41:28.049Z,29.53
2019-02-02T19:43:59.913Z,28.77
2019-02-02T19:46:31.740Z,30.10
2019-02-02T19:49:03.629Z,28.53
2019-02-02T19:51:35.534Z,28.77
2019-02-02T19:54:11.503Z,28.67
2019-02-02T19:56:44.667Z,29.57
2019-02-02T19:59:16.670Z,28.90
2019-02-02T20:01:48.574Z,30.57
2019-02-02T20:04:20.386Z,29.40
2019-02-02T20:06:52.382Z,29.20
2019-02-02T20:09:24.213Z,28.23
2019-02-02T20:11:56.117Z,29.60
2019-02-02T20:14:27.954Z,30.00
2019-02-02T20:16:59.800Z,30.30
2019-02-02T20:19:31.654Z,29.73
2019-02-02T20:22:03.525Z,29.13
2019-02-02T20:24:35.396Z,27.20
2019-02-02T20:27:07.299Z,30.03
2019-02-02T20:29:39.130Z,27.27
2019-02-02T20:32:10.938Z,28.87
2019-02-02T20:34:42.727Z,27.87
2019-02-02T20:37:14.517Z,26.43
2019-02-02T20:39:46.365Z,26.83
2019-02-02T20:42:18.145Z,27.93
2019-02-02T20:44:49.927Z,26.47
2019-02-02T20:47:21.862Z,25.97
2019-02-02T20:49:54.026Z,26.57
2019-02-02T20:52:25.850Z,25.20
2019-02-02T20:54:57.692Z,26.43
2019-02-02T20:57:29.492Z,26.40
2019-02-02T21:00:01.398Z,29.13
2019-02-02T21:02:33.316Z,33.03
2019-02-02T21:05:05.668Z,29.83
2019-02-02T21:07:37.452Z,29.03
2019-02-02T21:10:11.568Z,29.17
2019-02-02T21:12:43.789Z,29.50
2019-02-02T21:15:15.772Z,29.60
2019-02-02T21:17:47.631Z,28.60
2019-02-02T21:20:24.604Z,29.67
2019-02-02T21:22:56.770Z,28.90
2019-02-02T21:25:28.678Z,29.70
2019-02-02T21:28:00.455Z,29.30
2019-02-02T21:30:34.313Z,29.83
2019-02-02T21:33:06.738Z,30.23
2019-02-02T21:35:38.660Z,31.30
2019-02-02T21:38:10.517Z,29.33
2019-02-02T21:40:42.425Z,29.33
2019-02-02T21:43:14.325Z,28.33
2019-02-02T21:45:46.154Z,28.23
2019-02-02T21:48:24.122Z,27.37
2019-02-02T21:50:55.983Z,28.53
2019-02-02T21:53:27.836Z,27.13
2019-02-02T21:55:59.688Z,27.17
2019-02-02T21:58:31.519Z,26.20
2019-02-02T22:01:03.388Z,27.03
2019-02-02T22:03:36.232Z,25.50
2019-02-02T22:06:15.620Z,25.37
2019-02-02T22:08:46.383Z,25.07
2019-02-02T22:11:18.359Z,24.73
2019-02-02T22:13:51.189Z,25.20
2019-02-02T22:16:23.580Z,26.37
2019-02-02T22:18:56.696Z,25.30
2019-02-02T22:21:28.695Z,25.23
2019-02-02T22:24:00.595Z,24.60
2019-02-02T22:26:32.544Z,25.37
2019-02-02T22:29:05.410Z,24.93
2019-02-02T22:31:39.404Z,24.90
2019-02-02T22:34:13.709Z,24.10
2019-02-02T22:36:46.548Z,24.63
2019-02-02T22:39:19.688Z,25.67
2019-02-02T22:41:51.619Z,26.00
2019-02-02T22:44:25.227Z,24.43
2019-02-02T22:46:59.452Z,27.83
2019-02-02T22:49:32.593Z,25.87
2019-02-02T22:52:05.802Z,26.20
2019-02-02T22:54:39.997Z,26.23
2019-02-02T22:57:12.164Z,26.53
2019-02-02T22:59:47.790Z,26.83
2019-02-02T23:02:21.641Z,27.23
2019-02-02T23:05:26.035Z,27.87
2019-02-02T23:08:40.265Z,26.93
2019-02-02T23:11:33.105Z,28.17
2019-02-02T23:14:29.318Z,26.93
2019-02-02T23:17:01.436Z,27.20
2019-02-02T23:19:33.432Z,26.77
2019-02-02T23:22:05.793Z,26.90
2019-02-02T23:24:38.062Z,26.10
2019-02-02T23:27:10.503Z,27.03
2019-02-02T23:29:42.890Z,28.80
2019-02-02T23:32:15.063Z,27.40
2019-02-02T23:34:48.250Z,26.93
2019-02-02T23:37:20.420Z,27.03
2019-02-02T23:39:52.584Z,26.63
2019-02-02T23:42:25.589Z,26.17
2019-02-02T23:44:57.698Z,26.23
2019-02-02T23:47:29.639Z,25.50
2019-02-02T23:50:01.842Z,26.03
2019-02-02T23:52:33.829Z,25.80
2019-02-02T23:55:06.595Z,26.67
2019-02-02T23:57:40.222Z,25.10
